Catende, Brazil
Current Conditions -  °F | °C
As of 10:00 PM on Friday 19 Dec 2014 (Local Time) from SBMO Reporting Station
Few Clouds Few Clouds  
Wind Chill: 75°   Ceiling: Unl
Heat Index: 75°   Visibility: 6mi
Dew Point: 72°   Wind: 8mph
Humidity: 89%   Direction: 70°ENE
Pressure: 29.97"   Gusts: NA
Location:  8.67°S, 35.72°W
Report Text: SBMO 200100Z 07007KT 9999 FEW020 24/22 Q1015
Loading
Personal Weather Stations






























Interactive Weather Map New forecast layout! Learn more

10-Day Weather Forecast

Advertisements
Track Severe Weather on mobile